Time;durP1;ratioP1;P1;durP2;ratioP2;P2;SDS_P1;SDS_P2;PMS_P1;PMS_P2;Temp;Humidity;BMP_temperature;BMP_pressure;BME280_temperature;BME280_humidity;BME280_pressure;Samples;Min_cycle;Max_cycle;Signal;HPM_P1;HPM_P2
2023/03/22 00:01:59;;;;;;;29.83;12.63;;;;;;;-5.25;60.61;96887.81;6320501;28;20050;-67
2023/03/22 00:05:02;;;;;;;;;;;;;;;-5.29;60.47;96878.44;6319819;28;20082;-68
2023/03/22 00:08:08;;;;;;;19.55;9.05;;;;;;;-5.20;60.47;96873.28;6319973;28;20304;-67
2023/03/22 00:11:14;;;;;;;23.20;11.55;;;;;;;-5.27;60.13;96881.84;6319992;28;20051;-68
2023/03/22 00:14:18;;;;;;;27.02;14.68;;;;;;;-5.23;59.93;96878.44;6319919;28;20520;-67
2023/03/22 00:17:24;;;;;;;21.58;11.38;;;;;;;-5.34;59.98;96880.16;6319897;28;20131;-66
2023/03/22 00:20:52;;;;;;;23.73;11.10;;;;;;;-5.40;60.89;96872.50;6319537;28;20051;-67
2023/03/22 00:23:55;;;;;;;14.60;8.75;;;;;;;-5.39;60.13;96875.03;6317992;28;20054;-67
2023/03/22 00:26:59;;;;;;;26.30;12.00;;;;;;;-5.48;59.97;96859.69;6319556;28;20501;-67
2023/03/22 00:30:04;;;;;;;;;;;;;;;-5.32;59.55;96881.00;6319999;28;20539;-66
2023/03/22 00:33:09;;;;;;;21.85;10.82;;;;;;;-5.36;59.33;96887.00;6319395;28;20065;-66
2023/03/22 00:36:14;;;;;;;21.65;9.85;;;;;;;-5.27;58.68;96889.53;6319459;28;20416;-67
2023/03/22 00:39:18;;;;;;;21.85;8.52;;;;;;;-5.26;59.01;96886.13;6319425;28;20040;-67
2023/03/22 00:42:24;;;;;;;21.05;9.45;;;;;;;-5.32;58.56;96892.13;6319260;28;20070;-67
2023/03/22 00:45:28;;;;;;;24.13;10.90;;;;;;;-5.33;58.51;96894.69;6319457;28;20334;-68
2023/03/22 00:48:34;;;;;;;17.58;9.65;;;;;;;-5.57;59.16;96881.06;6319377;28;20080;-66
2023/03/22 00:51:40;;;;;;;19.52;8.85;;;;;;;-5.54;58.44;96890.47;6319265;28;20040;-66
2023/03/22 00:54:46;;;;;;;22.98;11.60;;;;;;;-5.68;58.49;96887.91;6318640;28;20520;-67
2023/03/22 00:57:49;;;;;;;23.73;10.60;;;;;;;-5.77;59.24;96882.78;6319268;28;20081;-66
2023/03/22 01:00:52;;;;;;;;;;;;;;;-5.91;58.49;96891.34;6319495;28;20042;-66
2023/03/22 01:03:56;;;;;;;17.85;8.25;;;;;;;-5.98;59.31;96884.53;6319096;28;19949;-67
2023/03/22 01:07:00;;;;;;;;;;;;;;;-6.04;58.76;96889.66;6317932;28;20039;-67
2023/03/22 01:10:02;;;;;;;25.35;10.00;;;;;;;-6.06;59.11;96880.25;6318910;28;19957;-66
2023/03/22 01:13:08;;;;;;;16.88;8.80;;;;;;;-6.19;59.23;96879.41;6317995;28;20079;-68
2023/03/22 01:16:09;;;;;;;21.88;9.60;;;;;;;-6.04;58.52;96887.09;6319493;28;20524;-67
2023/03/22 01:19:14;;;;;;;19.30;9.30;;;;;;;-6.03;58.64;96881.09;6323437;28;20135;-67
2023/03/22 01:22:18;;;;;;;20.40;10.00;;;;;;;-6.02;58.59;96887.09;6323401;28;20055;-67
2023/03/22 01:25:22;;;;;;;14.02;7.82;;;;;;;-6.02;57.94;96875.13;6323907;28;20050;-66
2023/03/22 01:28:24;;;;;;;18.42;8.63;;;;;;;-5.94;58.09;96870.88;6322066;28;20125;-67
2023/03/22 01:31:25;;;;;;;17.33;7.72;;;;;;;-5.98;58.33;96864.03;6323190;28;20516;-67
2023/03/22 01:34:27;;;;;;;11.82;5.60;;;;;;;-6.04;58.19;96871.72;6323023;28;20051;-66
2023/03/22 01:37:28;;;;;;;10.27;6.05;;;;;;;-5.86;57.40;96865.69;6323102;28;20044;-67
2023/03/22 01:40:29;;;;;;;17.67;7.90;;;;;;;-5.89;57.28;96861.44;6323283;28;20032;-67
2023/03/22 01:43:31;;;;;;;16.70;7.43;;;;;;;-5.87;57.63;96857.16;6323181;28;20039;-67
2023/03/22 01:46:33;;;;;;;16.73;6.65;;;;;;;-5.96;57.53;96867.44;6322891;28;20066;-67
2023/03/22 01:49:40;;;;;;;17.77;7.05;;;;;;;-5.89;57.50;96863.13;6322612;28;20128;-67
2023/03/22 01:52:43;;;;;;;11.77;7.88;;;;;;;-5.96;57.63;96862.31;6322849;28;20051;-66
2023/03/22 01:55:48;;;;;;;19.55;8.88;;;;;;;-5.98;57.10;96853.78;6323043;28;20498;-66
2023/03/22 01:58:56;;;;;;;15.40;6.15;;;;;;;-6.04;56.70;96853.78;6321973;28;20071;-67
2023/03/22 02:02:03;;;;;;;22.48;9.93;;;;;;;-6.09;56.93;96835.00;6323018;28;20085;-66
2023/03/22 02:05:06;;;;;;;16.33;8.10;;;;;;;-6.25;57.13;96846.97;6323040;28;20044;-67
2023/03/22 02:08:13;;;;;;;16.75;8.57;;;;;;;-6.32;57.64;96848.66;6323310;28;20077;-67
2023/03/22 02:11:24;;;;;;;23.98;10.02;;;;;;;-6.18;57.37;96847.81;6323216;28;20044;-66
2023/03/22 02:14:44;;;;;;;19.17;9.15;;;;;;;-6.34;57.14;96845.25;6322593;28;20040;-66
2023/03/22 02:18:29;;;;;;;28.80;10.38;;;;;;;-6.54;58.12;96829.00;6321530;28;20427;-67
2023/03/22 02:21:51;;;;;;;13.77;7.35;;;;;;;-6.35;57.78;96830.72;6322264;28;20577;-67
2023/03/22 02:25:22;;;;;;;15.25;7.75;;;;;;;-6.22;57.86;96841.00;6322448;28;20054;-68
2023/03/22 02:28:37;;;;;;;18.08;6.22;;;;;;;-6.21;57.89;96840.13;6321825;28;20510;-66
2023/03/22 02:32:14;;;;;;;17.85;8.10;;;;;;;-5.83;56.69;96840.09;6322299;28;20412;-68
2023/03/22 02:35:53;;;;;;;17.40;7.90;;;;;;;-5.82;56.76;96838.38;6322184;28;20092;-67
2023/03/22 02:39:09;;;;;;;18.60;8.70;;;;;;;-5.71;56.81;96839.22;6222752;28;20525;-67
2023/03/22 02:42:55;;;;;;;21.27;8.40;;;;;;;-5.49;56.15;96842.56;6321903;28;20338;-66
2023/03/22 02:46:16;;;;;;;14.82;6.68;;;;;;;-5.29;55.52;96852.81;6321710;28;20126;-66
2023/03/22 02:49:27;;;;;;;18.23;8.57;;;;;;;-5.33;55.17;96838.25;6321145;28;20040;-66
2023/03/22 02:52:44;;;;;;;21.17;8.57;;;;;;;-5.15;54.82;96847.59;6322052;28;20209;-67
2023/03/22 02:56:01;;;;;;;15.50;8.40;;;;;;;-5.01;54.62;96844.13;6321052;28;20052;-67
2023/03/22 02:59:08;;;;;;;18.85;7.22;;;;;;;-5.03;54.48;96853.53;6321651;28;20044;-67
2023/03/22 03:02:18;;;;;;;15.65;7.05;;;;;;;-4.83;54.17;96850.03;6319539;28;20185;-68
2023/03/22 03:05:24;;;;;;;10.85;5.13;;;;;;;-4.67;53.48;96833.72;6320887;28;20079;-67
2023/03/22 03:08:29;;;;;;;20.65;8.70;;;;;;;-4.70;53.56;96831.13;6321360;28;20548;-67
2023/03/22 03:11:34;;;;;;;13.63;6.32;;;;;;;-4.45;53.37;96841.25;6320603;28;20055;-66
2023/03/22 03:14:35;;;;;;;15.18;7.05;;;;;;;-4.17;52.12;96847.91;6320841;28;20044;-67
2023/03/22 03:18:16;;;;;;;11.75;5.50;;;;;;;-4.11;52.11;96845.28;6321132;28;20127;-67
2023/03/22 03:21:29;;;;;;;11.73;4.80;;;;;;;-3.99;51.37;96846.06;6320822;28;20044;-67
2023/03/22 03:24:45;;;;;;;14.73;6.40;;;;;;;-4.00;51.28;96829.78;6320493;28;20429;-68
2023/03/22 03:28:28;;;;;;;12.80;5.28;;;;;;;-3.77;50.31;96842.44;6320579;28;20527;-67
2023/03/22 03:31:49;;;;;;;8.18;4.22;;;;;;;-3.58;50.35;96847.44;6289980;28;20135;-67
2023/03/22 03:35:00;;;;;;;12.57;4.35;;;;;;;-3.38;49.82;96840.34;6320017;28;20051;-67
2023/03/22 03:38:10;;;;;;;13.23;5.47;;;;;;;-3.18;49.62;96851.28;6319603;28;20044;-67
2023/03/22 03:41:16;;;;;;;15.27;4.97;;;;;;;-2.90;49.06;96838.09;6319355;28;20050;-67
2023/03/22 03:44:19;;;;;;;12.77;5.00;;;;;;;-2.74;49.14;96846.47;6319778;28;20055;-67
2023/03/22 03:47:22;;;;;;;15.10;5.28;;;;;;;-2.54;48.28;96851.38;6320194;28;20305;-68
2023/03/22 03:50:28;;;;;;;13.93;5.82;;;;;;;-2.42;47.40;96846.03;6320290;28;20048;-67
2023/03/22 03:53:30;;;;;;;;;;;;;;;-2.08;47.24;96845.53;6319971;28;20052;-67
2023/03/22 03:56:31;;;;;;;15.65;6.40;;;;;;;-2.01;46.46;96841.97;6319376;28;19920;-67
2023/03/22 03:59:37;;;;;;;11.23;5.10;;;;;;;-2.05;46.42;96845.50;6320137;28;20036;-68
2023/03/22 04:02:42;;;;;;;19.25;6.05;;;;;;;-1.96;45.96;96844.50;6319595;28;20052;-68
2023/03/22 04:05:48;;;;;;;14.93;5.45;;;;;;;-1.98;46.13;96847.13;6320018;28;20044;-67
2023/03/22 04:08:52;;;;;;;12.13;5.43;;;;;;;-1.73;45.50;96846.69;6318686;28;20043;-67
2023/03/22 04:11:55;;;;;;;12.55;4.95;;;;;;;-1.59;45.69;96844.72;6319355;28;20036;-67
2023/03/22 04:15:01;;;;;;;11.90;5.20;;;;;;;-1.46;45.46;96846.22;6319814;28;20052;-68
2023/03/22 04:18:02;;;;;;;11.00;3.75;;;;;;;-1.29;45.27;96838.16;6319525;28;20050;-68
2023/03/22 04:21:10;;;;;;;10.48;4.38;;;;;;;-1.30;45.50;96845.94;6319581;28;20036;-68
2023/03/22 04:24:13;;;;;;;12.63;4.55;;;;;;;-1.19;44.85;96844.00;6319162;28;20048;-68
2023/03/22 04:27:19;;;;;;;15.85;6.50;;;;;;;-1.22;45.08;96846.63;6319341;28;20056;-68
2023/03/22 04:30:21;;;;;;;10.75;4.15;;;;;;;-1.20;45.16;96838.00;6318082;28;20052;-67
2023/03/22 04:33:23;;;;;;;21.23;5.82;;;;;;;-1.01;44.86;96835.91;6317720;28;20505;-67
2023/03/22 04:36:30;;;;;;;11.68;4.03;;;;;;;-0.92;44.84;96833.13;6318940;28;20139;-67
2023/03/22 04:39:31;;;;;;;9.65;5.05;;;;;;;-0.78;44.65;96830.28;6319193;28;20422;-67
2023/03/22 04:42:35;;;;;;;;;;;;;;;-0.58;44.99;96831.59;6319475;28;20078;-66
2023/03/22 04:45:36;;;;;;;18.77;6.07;;;;;;;-0.32;44.83;96833.59;6319057;28;19931;-68
2023/03/22 04:48:42;;;;;;;12.30;5.20;;;;;;;0.05;43.79;96833.59;6319284;28;20055;-68
2023/03/22 04:51:43;;;;;;;12.38;5.50;;;;;;;0.23;43.48;96829.72;6318441;28;20117;-68
2023/03/22 04:54:47;;;;;;;11.50;5.03;;;;;;;0.43;43.25;96832.66;6318560;28;20162;-67
2023/03/22 04:57:48;;;;;;;10.60;4.75;;;;;;;0.77;43.79;96834.38;6318979;28;20566;-68
2023/03/22 05:00:52;;;;;;;11.20;5.50;;;;;;;1.15;43.42;96829.88;6319198;28;20047;-68
2023/03/22 05:03:55;;;;;;;6.22;2.80;;;;;;;1.59;43.58;96825.16;6318783;28;20047;-67
2023/03/22 05:06:57;;;;;;;4.43;2.40;;;;;;;2.23;43.36;96830.91;6318935;28;20408;-67
2023/03/22 05:10:07;;;;;;;6.80;2.25;;;;;;;2.81;43.23;96835.91;6318616;28;20071;-68
2023/03/22 05:13:13;;;;;;;2.65;1.63;;;;;;;3.44;42.24;96820.63;6318971;28;20043;-67
2023/03/22 05:16:14;;;;;;;4.43;2.03;;;;;;;4.02;41.41;96817.56;6317957;28;20047;-68
2023/03/22 05:19:21;;;;;;;3.80;2.00;;;;;;;4.51;40.88;96820.78;6318172;28;20043;-68
2023/03/22 05:22:22;;;;;;;3.50;1.95;;;;;;;4.87;40.26;96810.56;6318265;28;20406;-67
2023/03/22 05:25:26;;;;;;;3.85;1.80;;;;;;;5.26;39.67;96809.69;6318843;28;20048;-67
2023/03/22 05:28:30;;;;;;;3.22;1.83;;;;;;;5.53;38.71;96817.22;6318148;28;20048;-67
2023/03/22 05:31:39;;;;;;;3.33;1.60;;;;;;;5.69;38.37;96817.34;6318759;28;20052;-67
2023/03/22 05:34:44;;;;;;;4.43;2.38;;;;;;;5.71;38.53;96807.69;6318780;28;20459;-67
2023/03/22 05:37:51;;;;;;;5.75;2.17;;;;;;;5.80;37.89;96795.06;6318253;28;20063;-67
2023/03/22 05:40:55;;;;;;;4.25;2.45;;;;;;;6.11;37.22;96801.44;6317983;28;20594;-68
2023/03/22 05:43:59;;;;;;;5.65;1.92;;;;;;;6.67;36.44;96796.97;6317649;28;20055;-67
2023/03/22 05:47:00;;;;;;;7.60;4.20;;;;;;;9.77;32.77;96789.94;6317465;28;20059;-68
2023/03/22 05:50:02;;;;;;;4.38;2.83;;;;;;;13.40;28.51;96788.22;6317923;28;20040;-68
2023/03/22 05:53:10;;;;;;;2.55;2.25;;;;;;;15.25;25.38;96784.72;6316757;28;20048;-68
2023/03/22 05:56:14;;;;;;;5.90;2.83;;;;;;;15.60;24.28;96789.66;6316328;28;20387;-67
2023/03/22 05:59:16;;;;;;;4.70;2.65;;;;;;;15.78;24.11;96795.19;6317863;28;20572;-67
2023/03/22 06:02:17;;;;;;;5.43;2.90;;;;;;;16.38;23.91;96790.75;6318183;28;20528;-67
2023/03/22 06:05:22;;;;;;;2.72;1.80;;;;;;;18.27;22.06;96796.31;6322527;28;20040;-68
2023/03/22 06:08:29;;;;;;;7.15;2.80;;;;;;;18.32;20.27;96789.53;6322663;28;20112;-66
2023/03/22 06:11:34;;;;;;;8.00;2.95;;;;;;;18.29;20.00;96795.16;6322597;28;20028;-68
2023/03/22 06:14:40;;;;;;;3.45;2.00;;;;;;;17.97;20.02;96794.75;6322649;28;20040;-68
2023/03/22 06:17:46;;;;;;;3.53;2.40;;;;;;;17.10;21.06;96788.72;6322336;28;20069;-68
2023/03/22 06:20:51;;;;;;;6.75;2.72;;;;;;;16.47;20.31;96810.31;6322645;28;20297;-67
2023/03/22 06:23:57;;;;;;;7.75;2.45;;;;;;;15.96;20.09;96795.41;6322174;28;20093;-67
2023/03/22 06:27:01;;;;;;;3.33;2.22;;;;;;;15.84;20.48;96796.47;6322226;28;20421;-68
2023/03/22 06:30:06;;;;;;;2.80;2.33;;;;;;;15.44;20.45;96794.59;6322249;28;20501;-68
2023/03/22 06:33:11;;;;;;;4.40;2.75;;;;;;;15.16;20.56;96796.94;6322497;28;20038;-68
2023/03/22 06:36:16;;;;;;;3.83;2.42;;;;;;;15.12;20.74;96792.06;6322287;28;20404;-68
2023/03/22 06:39:22;;;;;;;5.47;2.60;;;;;;;15.42;21.15;96785.94;6322080;28;20104;-68
2023/03/22 06:42:29;;;;;;;6.70;2.80;;;;;;;15.90;20.34;96790.63;6322372;28;20482;-68
2023/03/22 06:45:34;;;;;;;5.82;2.35;;;;;;;16.35;19.74;96779.56;6321699;28;20065;-68
2023/03/22 06:48:39;;;;;;;4.68;2.25;;;;;;;14.71;21.17;96781.28;6322180;28;20043;-68
2023/03/22 06:51:44;;;;;;;5.75;2.60;;;;;;;13.98;22.27;96784.59;6322431;28;20496;-68
2023/03/22 06:54:48;;;;;;;4.90;2.03;;;;;;;13.91;22.53;96782.44;6321473;28;20101;-67
2023/03/22 06:57:52;;;;;;;5.72;2.67;;;;;;;14.72;21.58;96774.16;6321379;28;20040;-67
2023/03/22 07:00:56;;;;;;;6.13;2.53;;;;;;;15.03;21.71;96775.09;6321531;28;20052;-68
2023/03/22 07:04:01;;;;;;;8.43;3.00;;;;;;;16.06;20.63;96764.44;6321232;28;20505;-68
2023/03/22 07:07:06;;;;;;;6.10;3.53;;;;;;;15.79;20.81;96761.56;6321601;28;20062;-68
2023/03/22 07:10:12;;;;;;;7.10;3.20;;;;;;;15.92;21.04;96752.38;6321393;28;20440;-69
2023/03/22 07:13:16;;;;;;;5.22;2.63;;;;;;;16.81;20.48;96754.16;6321229;28;20039;-68
2023/03/22 07:16:21;;;;;;;6.93;2.83;;;;;;;17.54;19.99;96743.78;6319746;28;20135;-69
2023/03/22 07:19:26;;;;;;;7.00;3.28;;;;;;;17.91;19.34;96754.44;6321025;28;20134;-68
2023/03/22 07:22:30;;;;;;;5.45;2.90;;;;;;;17.94;19.75;96747.97;6320941;28;20040;-68
2023/03/22 07:25:35;;;;;;;6.05;3.13;;;;;;;18.12;19.71;96745.38;6320732;28;20497;-68
2023/03/22 07:28:43;;;;;;;6.82;2.83;;;;;;;17.89;19.77;96740.47;6320746;28;20051;-68
2023/03/22 07:31:47;;;;;;;5.30;2.70;;;;;;;17.82;19.94;96739.34;6320852;28;20042;-68
2023/03/22 07:34:52;;;;;;;5.35;2.50;;;;;;;16.63;21.04;96745.22;6320931;28;20044;-69
2023/03/22 07:37:56;;;;;;;8.02;4.45;;;;;;;14.66;23.02;96734.97;6320575;28;20047;-68
2023/03/22 07:41:00;;;;;;;9.82;4.30;;;;;;;13.20;25.13;96744.00;6320685;28;20046;-69
2023/03/22 07:44:05;;;;;;;7.95;3.70;;;;;;;12.59;25.93;96739.75;6320248;28;20421;-68
2023/03/22 07:47:10;;;;;;;5.45;3.40;;;;;;;12.45;26.46;96742.59;6320358;28;20485;-68
2023/03/22 07:50:16;;;;;;;10.07;4.30;;;;;;;11.98;27.22;96731.13;6320334;28;20040;-68
2023/03/22 07:53:20;;;;;;;13.75;8.30;;;;;;;11.54;28.30;96729.00;6320317;28;20048;-68
2023/03/22 07:56:24;;;;;;;9.02;4.10;;;;;;;11.55;28.22;96721.00;6319413;28;20054;-68
2023/03/22 07:59:30;;;;;;;5.32;3.42;;;;;;;11.53;28.52;96707.09;6320171;28;20040;-68
2023/03/22 08:02:32;;;;;;;6.68;3.50;;;;;;;11.64;28.27;96715.06;6319683;28;20046;-67
2023/03/22 08:05:47;;;;;;;9.10;3.70;;;;;;;11.73;28.37;96712.72;6319683;28;20047;-68
2023/03/22 08:08:54;;;;;;;3.60;2.53;;;;;;;12.39;27.67;96711.38;6320120;28;20036;-69
2023/03/22 08:11:59;;;;;;;6.70;3.25;;;;;;;12.53;27.46;96703.28;6319863;28;20135;-68
2023/03/22 08:15:03;;;;;;;6.30;3.28;;;;;;;12.03;28.20;96705.25;6319574;28;20036;-69
2023/03/22 08:18:07;;;;;;;6.57;3.33;;;;;;;11.52;29.06;96705.41;6317567;28;20048;-69
2023/03/22 08:21:12;;;;;;;8.93;4.82;;;;;;;11.22;29.91;96703.97;6319180;28;20047;-68
2023/03/22 08:24:18;;;;;;;10.02;5.25;;;;;;;10.63;30.85;96702.84;6319019;28;20129;-70
2023/03/22 08:27:26;;;;;;;8.23;5.28;;;;;;;9.99;31.75;96706.16;6318489;28;20048;-68
2023/03/22 08:30:32;;;;;;;7.05;4.57;;;;;;;9.54;32.78;96695.03;6319815;28;20048;-68
2023/03/22 08:33:34;;;;;;;7.05;3.80;;;;;;;9.77;32.36;96706.69;6319991;28;20126;-67
2023/03/22 08:36:39;;;;;;;7.50;3.20;;;;;;;9.31;33.21;96693.84;6319428;28;20086;-68
2023/03/22 08:39:50;;;;;;;4.88;3.67;;;;;;;8.93;33.67;96699.69;6317864;28;20426;-69
2023/03/22 08:42:54;;;;;;;8.10;4.10;;;;;;;8.59;34.48;96700.03;6318619;28;20055;-71
2023/03/22 08:45:56;;;;;;;10.00;4.78;;;;;;;8.71;34.25;96709.78;6318362;28;20437;-68
2023/03/22 08:49:05;;;;;;;8.05;3.80;;;;;;;8.71;34.84;96709.78;6319240;28;20075;-68
2023/03/22 08:52:07;;;;;;;6.22;4.13;;;;;;;8.79;34.97;96702.31;6318948;28;20048;-68
2023/03/22 08:55:13;;;;;;;10.68;4.03;;;;;;;9.18;34.39;96692.94;6318449;28;20048;-69
2023/03/22 08:58:22;;;;;;;5.97;3.53;;;;;;;9.53;33.64;96703.84;6317737;28;20085;-69
2023/03/22 09:01:25;;;;;;;4.82;3.35;;;;;;;9.35;33.87;96690.09;6318389;28;20542;-67
2023/03/22 09:04:29;;;;;;;6.88;3.60;;;;;;;9.36;33.84;96691.75;6319154;28;20495;-68
2023/03/22 09:07:35;;;;;;;7.15;3.85;;;;;;;9.58;33.72;96677.28;6319025;28;20044;-68
2023/03/22 09:10:39;;;;;;;8.88;4.30;;;;;;;9.82;33.54;96667.84;6318952;28;20489;-68
2023/03/22 09:13:43;;;;;;;9.60;4.28;;;;;;;10.09;32.98;96664.31;6319249;28;20132;-68
2023/03/22 09:16:45;;;;;;;9.02;3.45;;;;;;;10.43;32.30;96662.09;6317597;28;20040;-68
2023/03/22 09:19:46;;;;;;;7.60;3.42;;;;;;;10.24;31.92;96668.56;6316988;28;20040;-68
2023/03/22 09:22:52;;;;;;;;;;;;;;;9.85;32.91;96656.25;6319114;28;20043;-67
2023/03/22 09:25:54;;;;;;;6.30;2.95;;;;;;;9.02;34.60;96661.53;6318495;28;19920;-68
2023/03/22 09:28:56;;;;;;;10.05;3.80;;;;;;;8.69;35.32;96669.69;6318252;28;20054;-68
2023/03/22 09:32:00;;;;;;;12.10;4.80;;;;;;;8.33;36.44;96663.06;6318181;28;20127;-67
2023/03/22 09:35:05;;;;;;;4.28;2.75;;;;;;;8.24;36.69;96659.22;6318543;28;20377;-67
2023/03/22 09:38:06;;;;;;;6.50;3.28;;;;;;;8.26;37.52;96657.31;6320967;28;20048;-68
2023/03/22 09:41:17;;;;;;;7.05;4.25;;;;;;;8.18;37.80;96642.97;6321992;28;20054;-68
2023/03/22 09:44:33;;;;;;;11.43;3.97;;;;;;;7.97;38.64;96645.94;6323481;28;20040;-68
2023/03/22 09:47:42;;;;;;;8.55;4.40;;;;;;;7.81;39.02;96640.75;6323248;28;20490;-68
2023/03/22 09:50:50;;;;;;;7.75;4.57;;;;;;;7.72;40.04;96646.50;6322791;28;20044;-69
2023/03/22 09:53:56;;;;;;;7.55;3.97;;;;;;;7.62;40.38;96635.72;6323113;28;20128;-68
2023/03/22 09:57:27;;;;;;;7.68;4.65;;;;;;;7.47;41.03;96633.94;6298087;28;20098;-68
2023/03/22 10:00:44;;;;;;;6.88;4.03;;;;;;;7.67;40.68;96637.22;6297807;28;20052;-68
2023/03/22 10:04:10;;;;;;;8.63;4.80;;;;;;;7.61;41.41;96623.56;6296482;28;20648;-67
2023/03/22 10:07:42;;;;;;;9.50;4.90;;;;;;;7.53;41.55;96630.13;6297768;28;20529;-67
2023/03/22 10:10:43;;;;;;;10.73;4.63;;;;;;;7.67;41.86;96631.97;6297484;28;20048;-68
2023/03/22 10:13:52;;;;;;;7.25;3.90;;;;;;;7.94;41.40;96619.91;6297473;28;20518;-68
2023/03/22 10:16:56;;;;;;;5.45;3.65;;;;;;;8.35;40.72;96629.75;6296082;28;20441;-68
2023/03/22 10:20:12;;;;;;;;;;;;;;;8.92;39.66;96626.31;6297622;28;20048;-69
2023/03/22 10:23:23;;;;;;;7.50;4.10;;;;;;;8.39;40.77;96606.84;6297347;28;19916;-68
2023/03/22 10:26:29;;;;;;;8.88;4.35;;;;;;;8.43;40.78;96603.91;6297046;28;20141;-67
2023/03/22 10:29:38;;;;;;;7.85;4.10;;;;;;;8.84;40.30;96591.84;6297294;28;20418;-68
2023/03/22 10:32:55;;;;;;;6.72;3.92;;;;;;;9.20;40.18;96592.13;6297232;28;20045;-68
2023/03/22 10:36:02;;;;;;;5.90;3.60;;;;;;;9.80;38.74;96593.50;6297017;28;20084;-68
2023/03/22 10:39:25;;;;;;;9.30;3.50;;;;;;;9.04;40.30;96590.59;6296943;28;20047;-68
2023/03/22 10:42:30;;;;;;;8.43;4.55;;;;;;;9.35;40.14;96584.22;6296737;28;20048;-68
2023/03/22 10:45:36;;;;;;;10.00;4.80;;;;;;;10.05;38.71;96573.47;6297033;28;20048;-69
2023/03/22 10:48:43;;;;;;;8.68;4.72;;;;;;;9.36;39.68;96568.34;6295631;28;20044;-68
2023/03/22 10:51:55;;;;;;;8.10;4.38;;;;;;;8.78;41.08;96574.69;6296694;28;20151;-68
2023/03/22 10:55:00;;;;;;;7.57;4.03;;;;;;;8.41;41.88;96570.88;6304565;28;20067;-68
2023/03/22 10:58:34;;;;;;;8.40;4.80;;;;;;;8.34;42.28;96570.38;6321722;28;20425;-68
2023/03/22 11:01:43;;;;;;;8.70;5.15;;;;;;;7.93;43.22;96565.84;6278571;28;20068;-67
2023/03/22 11:04:53;;;;;;;9.18;4.78;;;;;;;7.87;43.44;96566.22;6320404;28;20042;-68
2023/03/22 11:07:59;;;;;;;8.15;5.40;;;;;;;7.84;43.62;96576.84;6320978;28;20051;-68
2023/03/22 11:11:06;;;;;;;11.05;4.65;;;;;;;7.77;43.64;96570.28;6320632;28;20051;-69
2023/03/22 11:14:15;;;;;;;8.02;3.90;;;;;;;7.43;44.30;96559.16;6321716;28;20044;-68
2023/03/22 11:17:24;;;;;;;10.77;4.45;;;;;;;7.35;44.60;96558.75;6320742;28;20105;-68
2023/03/22 11:20:26;;;;;;;7.30;4.18;;;;;;;7.72;44.14;96556.63;6320849;28;20063;-68
2023/03/22 11:23:32;;;;;;;5.03;3.28;;;;;;;9.05;41.97;96558.97;6320783;28;20077;-68
2023/03/22 11:26:36;;;;;;;6.85;4.03;;;;;;;10.95;38.22;96547.94;6320466;28;20527;-68
2023/03/22 11:29:52;;;;;;;6.38;3.83;;;;;;;12.46;35.44;96551.66;6321273;28;20040;-69
2023/03/22 11:33:19;;;;;;;5.60;3.42;;;;;;;12.12;35.33;96556.88;6321144;28;20518;-68
2023/03/22 11:36:21;;;;;;;8.30;3.08;;;;;;;11.65;36.28;96555.16;6320443;28;20040;-68
2023/03/22 11:39:27;;;;;;;6.18;3.20;;;;;;;11.52;36.49;96552.59;6320641;28;20044;-68
2023/03/22 11:42:33;;;;;;;4.88;3.08;;;;;;;11.13;37.00;96545.81;6301447;28;20611;-68
2023/03/22 11:45:42;;;;;;;3.97;2.80;;;;;;;10.50;38.38;96537.94;6320260;28;20040;-67
2023/03/22 11:48:47;;;;;;;3.40;2.47;;;;;;;10.02;39.23;96536.84;6319883;28;20044;-68
2023/03/22 11:51:51;;;;;;;7.00;3.22;;;;;;;9.44;40.50;96537.19;6320130;28;20044;-68
2023/03/22 11:54:57;;;;;;;6.85;3.53;;;;;;;9.10;41.44;96532.44;6318048;28;20059;-68
2023/03/22 11:58:05;;;;;;;7.35;3.92;;;;;;;8.94;41.92;96536.03;6319866;28;20418;-68
2023/03/22 12:01:17;;;;;;;7.40;3.88;;;;;;;8.20;43.49;96525.81;6318986;28;20051;-68
2023/03/22 12:04:27;;;;;;;7.47;3.47;;;;;;;7.51;45.08;96522.91;6319441;28;20058;-68
2023/03/22 12:07:36;;;;;;;5.78;3.50;;;;;;;7.68;45.03;96527.16;6319326;28;20059;-69
2023/03/22 12:10:46;;;;;;;7.55;3.25;;;;;;;8.30;44.35;96511.22;6319684;28;20040;-68
2023/03/22 12:14:00;;;;;;;6.40;3.15;;;;;;;9.37;42.07;96507.03;6319379;28;20067;-68
2023/03/22 12:17:09;;;;;;;3.53;2.20;;;;;;;9.56;41.54;96504.00;6318982;28;20044;-69
2023/03/22 12:20:29;;;;;;;6.10;3.60;;;;;;;9.67;41.48;96500.66;6319749;28;20047;-68
2023/03/22 12:23:36;;;;;;;8.65;3.20;;;;;;;9.37;42.08;96498.28;6319602;28;20325;-69
2023/03/22 12:26:38;;;;;;;4.75;2.67;;;;;;;9.16;42.45;96504.00;6319106;28;20056;-68
2023/03/22 12:29:46;;;;;;;4.57;2.58;;;;;;;8.76;43.21;96498.72;6319331;28;20039;-68
2023/03/22 12:32:57;;;;;;;4.57;2.88;;;;;;;8.52;43.76;96501.09;6319326;28;20052;-68
2023/03/22 12:36:05;;;;;;;3.08;2.50;;;;;;;8.45;44.17;96494.56;6318298;28;20040;-68
2023/03/22 12:39:28;;;;;;;4.55;2.72;;;;;;;8.20;44.79;96487.31;6319619;28;20063;-68
2023/03/22 12:42:40;;;;;;;4.35;2.67;;;;;;;8.10;45.15;96494.91;6319213;28;20063;-68
2023/03/22 12:45:52;;;;;;;6.65;3.00;;;;;;;8.14;45.20;96495.56;6318848;28;20051;-67
2023/03/22 12:49:11;;;;;;;;;;;;;;;8.27;45.18;96496.50;6319559;28;20044;-68
2023/03/22 12:52:18;;;;;;;4.03;2.50;;;;;;;7.79;45.98;96492.47;6318392;28;19922;-68
2023/03/22 12:55:35;;;;;;;3.92;2.53;;;;;;;7.72;46.63;96499.00;6318803;28;20056;-67
2023/03/22 12:58:44;;;;;;;3.83;3.05;;;;;;;7.46;47.16;96493.53;6319138;28;20501;-67
2023/03/22 13:02:13;;;;;;;5.22;2.75;;;;;;;7.45;47.25;96497.09;6318591;28;20135;-68
2023/03/22 13:05:17;;;;;;;6.22;3.08;;;;;;;7.39;47.35;96492.22;6319094;28;20040;-68
2023/03/22 13:08:21;;;;;;;3.63;3.05;;;;;;;7.33;47.93;96492.53;6318300;28;20087;-68
2023/03/22 13:11:23;;;;;;;4.50;2.70;;;;;;;7.47;47.74;96495.19;6320301;28;20453;-68
2023/03/22 13:14:51;;;;;;;4.22;2.20;;;;;;;7.30;48.47;96484.88;6323765;28;20044;-67
2023/03/22 13:17:56;;;;;;;8.43;4.40;;;;;;;7.00;48.77;96477.88;6323409;28;20044;-69
2023/03/22 13:21:13;;;;;;;5.50;3.72;;;;;;;6.78;49.19;96485.22;6323307;28;20044;-68
2023/03/22 13:24:15;;;;;;;6.22;3.60;;;;;;;6.53;50.19;96478.75;6324087;28;20494;-69
2023/03/22 13:27:16;;;;;;;4.10;3.10;;;;;;;6.33;50.83;96476.38;6323198;28;20530;-69
2023/03/22 13:30:23;;;;;;;6.60;2.47;;;;;;;6.24;51.28;96475.94;6323071;28;20529;-68
2023/03/22 13:33:36;;;;;;;4.32;3.10;;;;;;;6.02;51.86;96481.47;6323709;28;20044;-68
2023/03/22 13:36:48;;;;;;;6.97;2.85;;;;;;;5.75;52.44;96468.06;6323725;28;20501;-69
2023/03/22 13:39:55;;;;;;;4.70;2.85;;;;;;;5.64;52.39;96470.41;6323524;28;20040;-68
2023/03/22 13:43:12;;;;;;;6.80;3.00;;;;;;;5.71;52.60;96470.91;6323636;28;20052;-69
2023/03/22 13:46:26;;;;;;;6.25;2.17;;;;;;;5.99;51.35;96480.78;6322697;28;20051;-68
2023/03/22 13:49:48;;;;;;;4.00;2.22;;;;;;;6.05;50.83;96470.03;6322937;28;20048;-68
2023/03/22 13:53:03;;;;;;;3.70;1.77;;;;;;;6.34;50.11;96488.50;6322955;28;20055;-68
2023/03/22 13:56:05;;;;;;;5.10;2.30;;;;;;;6.38;49.83;96487.44;6321289;28;20602;-69
2023/03/22 13:59:21;;;;;;;5.97;2.00;;;;;;;6.19;50.29;96487.56;6323230;28;20047;-68
2023/03/22 14:02:28;;;;;;;3.38;2.05;;;;;;;6.00;50.95;96487.69;6322747;28;20066;-69
2023/03/22 14:05:36;;;;;;;3.25;1.58;;;;;;;6.06;50.95;96482.19;6322978;28;20421;-69
2023/03/22 14:08:41;;;;;;;3.78;2.35;;;;;;;5.99;51.39;96486.03;6322599;28;20047;-68
2023/03/22 14:11:53;;;;;;;3.70;2.13;;;;;;;6.04;51.13;96489.25;6322811;28;20048;-68
2023/03/22 14:15:02;;;;;;;2.78;2.20;;;;;;;5.96;51.08;96491.41;6322825;28;20040;-69
2023/03/22 14:18:12;;;;;;;5.47;2.08;;;;;;;6.03;51.34;96490.16;6322237;28;20098;-70
2023/03/22 14:21:24;;;;;;;3.50;1.67;;;;;;;5.87;51.73;96486.63;6320691;28;20048;-68
2023/03/22 14:24:31;;;;;;;3.75;1.75;;;;;;;5.69;52.29;96493.63;6321518;28;20055;-67
2023/03/22 14:27:35;;;;;;;2.58;1.85;;;;;;;5.66;52.42;96497.25;6322437;28;20520;-70
2023/03/22 14:30:43;;;;;;;4.57;2.08;;;;;;;5.72;51.87;96498.69;6322387;28;20071;-68
2023/03/22 14:33:47;;;;;;;2.97;2.25;;;;;;;5.56;52.11;96489.06;6322982;28;20036;-67
2023/03/22 14:36:56;;;;;;;4.53;1.80;;;;;;;5.87;51.62;96504.91;6322067;28;20040;-68
2023/03/22 14:39:58;;;;;;;6.78;2.88;;;;;;;5.82;51.89;96505.97;6321449;28;20056;-68
2023/03/22 14:43:18;;;;;;;3.30;2.38;;;;;;;5.80;51.95;96502.63;6322044;28;20493;-68
2023/03/22 14:46:24;;;;;;;4.95;2.70;;;;;;;5.73;51.89;96505.63;6321615;28;20052;-67
2023/03/22 14:49:37;;;;;;;3.75;2.70;;;;;;;5.72;51.81;96504.78;6321957;28;20442;-68